sensor_id;sensor_type;location;lat;lon;timestamp;P1;durP1;ratioP1;P2;durP2;ratioP2
30127;SDS011;16942;53.196;6.592;2022-12-18T00:00:43;83.83;;;27.83;;
30127;SDS011;16942;53.196;6.592;2022-12-18T00:03:11;84.47;;;26.67;;
30127;SDS011;16942;53.196;6.592;2022-12-18T00:05:37;83.80;;;26.03;;
30127;SDS011;16942;53.196;6.592;2022-12-18T00:08:11;83.87;;;25.73;;
30127;SDS011;16942;53.196;6.592;2022-12-18T00:10:37;78.20;;;23.93;;
30127;SDS011;16942;53.196;6.592;2022-12-18T00:13:03;72.60;;;23.83;;
30127;SDS011;16942;53.196;6.592;2022-12-18T00:15:29;81.00;;;26.97;;
30127;SDS011;16942;53.196;6.592;2022-12-18T00:17:55;79.03;;;24.60;;
30127;SDS011;16942;53.196;6.592;2022-12-18T00:20:21;80.30;;;24.40;;
30127;SDS011;16942;53.196;6.592;2022-12-18T00:22:51;80.97;;;25.33;;
30127;SDS011;16942;53.196;6.592;2022-12-18T00:25:16;85.10;;;24.97;;
30127;SDS011;16942;53.196;6.592;2022-12-18T00:27:42;86.03;;;26.50;;
30127;SDS011;16942;53.196;6.592;2022-12-18T00:30:09;73.77;;;24.87;;
30127;SDS011;16942;53.196;6.592;2022-12-18T00:32:35;78.90;;;23.60;;
30127;SDS011;16942;53.196;6.592;2022-12-18T00:35:01;95.77;;;26.03;;
30127;SDS011;16942;53.196;6.592;2022-12-18T00:37:27;79.03;;;25.83;;
30127;SDS011;16942;53.196;6.592;2022-12-18T00:39:53;88.30;;;26.57;;
30127;SDS011;16942;53.196;6.592;2022-12-18T00:42:19;91.70;;;24.80;;
30127;SDS011;16942;53.196;6.592;2022-12-18T00:45:04;81.20;;;25.07;;
30127;SDS011;16942;53.196;6.592;2022-12-18T00:47:30;86.97;;;23.87;;
30127;SDS011;16942;53.196;6.592;2022-12-18T00:49:56;86.40;;;23.97;;
30127;SDS011;16942;53.196;6.592;2022-12-18T00:52:22;80.57;;;25.17;;
30127;SDS011;16942;53.196;6.592;2022-12-18T00:54:48;84.87;;;26.03;;
30127;SDS011;16942;53.196;6.592;2022-12-18T00:57:14;74.93;;;22.70;;
30127;SDS011;16942;53.196;6.592;2022-12-18T00:59:40;90.00;;;25.67;;
30127;SDS011;16942;53.196;6.592;2022-12-18T01:02:06;82.53;;;25.87;;
30127;SDS011;16942;53.196;6.592;2022-12-18T01:04:32;77.33;;;24.40;;
30127;SDS011;16942;53.196;6.592;2022-12-18T01:06:58;74.63;;;23.10;;
30127;SDS011;16942;53.196;6.592;2022-12-18T01:09:24;67.80;;;22.83;;
30127;SDS011;16942;53.196;6.592;2022-12-18T01:11:50;79.87;;;24.83;;
30127;SDS011;16942;53.196;6.592;2022-12-18T01:14:16;81.00;;;25.47;;
30127;SDS011;16942;53.196;6.592;2022-12-18T01:16:42;82.37;;;24.03;;
30127;SDS011;16942;53.196;6.592;2022-12-18T01:19:08;82.33;;;27.03;;
30127;SDS011;16942;53.196;6.592;2022-12-18T01:21:35;79.33;;;24.63;;
30127;SDS011;16942;53.196;6.592;2022-12-18T01:24:01;69.33;;;23.13;;
30127;SDS011;16942;53.196;6.592;2022-12-18T01:26:27;69.63;;;23.23;;
30127;SDS011;16942;53.196;6.592;2022-12-18T01:28:55;75.97;;;22.90;;
30127;SDS011;16942;53.196;6.592;2022-12-18T01:31:25;70.90;;;21.53;;
30127;SDS011;16942;53.196;6.592;2022-12-18T01:33:52;74.63;;;23.30;;
30127;SDS011;16942;53.196;6.592;2022-12-18T01:38:47;75.20;;;23.10;;
30127;SDS011;16942;53.196;6.592;2022-12-18T01:41:14;71.43;;;23.03;;
30127;SDS011;16942;53.196;6.592;2022-12-18T01:43:48;74.90;;;22.97;;
30127;SDS011;16942;53.196;6.592;2022-12-18T01:46:15;71.73;;;22.33;;
30127;SDS011;16942;53.196;6.592;2022-12-18T01:48:41;67.53;;;21.93;;
30127;SDS011;16942;53.196;6.592;2022-12-18T01:51:09;75.77;;;24.07;;
30127;SDS011;16942;53.196;6.592;2022-12-18T01:53:36;78.57;;;23.77;;
30127;SDS011;16942;53.196;6.592;2022-12-18T01:56:02;73.83;;;23.23;;
30127;SDS011;16942;53.196;6.592;2022-12-18T02:00:55;87.47;;;26.97;;
30127;SDS011;16942;53.196;6.592;2022-12-18T02:03:21;84.07;;;25.27;;
30127;SDS011;16942;53.196;6.592;2022-12-18T02:05:49;83.10;;;23.77;;
30127;SDS011;16942;53.196;6.592;2022-12-18T02:18:12;77.80;;;24.53;;
30127;SDS011;16942;53.196;6.592;2022-12-18T02:28:32;76.83;;;23.47;;
30127;SDS011;16942;53.196;6.592;2022-12-18T02:30:59;78.23;;;23.83;;
30127;SDS011;16942;53.196;6.592;2022-12-18T02:33:27;70.77;;;24.07;;
30127;SDS011;16942;53.196;6.592;2022-12-18T02:35:54;78.57;;;23.50;;
30127;SDS011;16942;53.196;6.592;2022-12-18T02:38:21;73.47;;;22.63;;
30127;SDS011;16942;53.196;6.592;2022-12-18T02:40:47;70.33;;;22.43;;
30127;SDS011;16942;53.196;6.592;2022-12-18T02:43:15;73.47;;;22.93;;
30127;SDS011;16942;53.196;6.592;2022-12-18T02:45:54;84.13;;;23.80;;
30127;SDS011;16942;53.196;6.592;2022-12-18T02:48:22;72.07;;;22.83;;
30127;SDS011;16942;53.196;6.592;2022-12-18T02:53:30;71.53;;;22.27;;
30127;SDS011;16942;53.196;6.592;2022-12-18T02:56:01;80.20;;;24.40;;
30127;SDS011;16942;53.196;6.592;2022-12-18T03:00:59;91.67;;;25.20;;
30127;SDS011;16942;53.196;6.592;2022-12-18T03:03:29;68.93;;;24.13;;
30127;SDS011;16942;53.196;6.592;2022-12-18T03:06:18;89.13;;;24.00;;
30127;SDS011;16942;53.196;6.592;2022-12-18T03:08:47;86.23;;;24.53;;
30127;SDS011;16942;53.196;6.592;2022-12-18T03:11:15;80.80;;;23.47;;
30127;SDS011;16942;53.196;6.592;2022-12-18T03:14:01;82.00;;;25.23;;
30127;SDS011;16942;53.196;6.592;2022-12-18T03:16:29;89.97;;;24.93;;
30127;SDS011;16942;53.196;6.592;2022-12-18T03:19:01;80.73;;;24.60;;
30127;SDS011;16942;53.196;6.592;2022-12-18T03:21:29;78.13;;;24.43;;
30127;SDS011;16942;53.196;6.592;2022-12-18T03:23:57;94.60;;;25.87;;
30127;SDS011;16942;53.196;6.592;2022-12-18T03:26:24;80.17;;;26.23;;
30127;SDS011;16942;53.196;6.592;2022-12-18T03:28:53;86.70;;;24.87;;
30127;SDS011;16942;53.196;6.592;2022-12-18T03:31:21;79.77;;;25.53;;
30127;SDS011;16942;53.196;6.592;2022-12-18T03:33:51;81.57;;;25.90;;
30127;SDS011;16942;53.196;6.592;2022-12-18T03:36:18;82.97;;;25.33;;
30127;SDS011;16942;53.196;6.592;2022-12-18T03:38:44;86.70;;;24.67;;
30127;SDS011;16942;53.196;6.592;2022-12-18T03:41:14;92.57;;;27.00;;
30127;SDS011;16942;53.196;6.592;2022-12-18T03:43:52;82.90;;;24.80;;
30127;SDS011;16942;53.196;6.592;2022-12-18T03:49:23;85.10;;;24.77;;
30127;SDS011;16942;53.196;6.592;2022-12-18T03:52:15;87.23;;;26.10;;
30127;SDS011;16942;53.196;6.592;2022-12-18T03:54:39;80.43;;;23.97;;
30127;SDS011;16942;53.196;6.592;2022-12-18T03:57:09;85.03;;;25.30;;
30127;SDS011;16942;53.196;6.592;2022-12-18T03:59:37;80.67;;;25.67;;
30127;SDS011;16942;53.196;6.592;2022-12-18T04:02:04;89.13;;;26.63;;
30127;SDS011;16942;53.196;6.592;2022-12-18T04:04:31;77.20;;;24.53;;
30127;SDS011;16942;53.196;6.592;2022-12-18T04:06:58;75.10;;;26.53;;
30127;SDS011;16942;53.196;6.592;2022-12-18T04:09:24;85.43;;;25.00;;
30127;SDS011;16942;53.196;6.592;2022-12-18T04:11:51;86.33;;;25.20;;
30127;SDS011;16942;53.196;6.592;2022-12-18T04:14:17;82.30;;;24.83;;
30127;SDS011;16942;53.196;6.592;2022-12-18T04:16:43;86.13;;;26.47;;
30127;SDS011;16942;53.196;6.592;2022-12-18T04:19:09;76.40;;;23.87;;
30127;SDS011;16942;53.196;6.592;2022-12-18T04:21:35;81.13;;;25.33;;
30127;SDS011;16942;53.196;6.592;2022-12-18T04:24:01;76.37;;;25.40;;
30127;SDS011;16942;53.196;6.592;2022-12-18T04:26:27;71.47;;;24.30;;
30127;SDS011;16942;53.196;6.592;2022-12-18T04:28:53;76.70;;;25.83;;
30127;SDS011;16942;53.196;6.592;2022-12-18T04:31:19;75.33;;;23.53;;
30127;SDS011;16942;53.196;6.592;2022-12-18T04:33:45;72.30;;;25.10;;
30127;SDS011;16942;53.196;6.592;2022-12-18T04:36:11;84.83;;;26.37;;
30127;SDS011;16942;53.196;6.592;2022-12-18T04:38:37;78.23;;;24.90;;
30127;SDS011;16942;53.196;6.592;2022-12-18T04:41:03;76.63;;;23.73;;
30127;SDS011;16942;53.196;6.592;2022-12-18T04:43:29;86.50;;;25.17;;
30127;SDS011;16942;53.196;6.592;2022-12-18T04:46:04;82.57;;;24.13;;
30127;SDS011;16942;53.196;6.592;2022-12-18T04:48:30;79.00;;;23.37;;
30127;SDS011;16942;53.196;6.592;2022-12-18T04:50:56;77.87;;;23.87;;
30127;SDS011;16942;53.196;6.592;2022-12-18T04:53:22;86.57;;;24.27;;
30127;SDS011;16942;53.196;6.592;2022-12-18T04:55:48;87.17;;;25.27;;
30127;SDS011;16942;53.196;6.592;2022-12-18T04:58:14;82.27;;;23.93;;
30127;SDS011;16942;53.196;6.592;2022-12-18T05:00:40;68.53;;;22.97;;
30127;SDS011;16942;53.196;6.592;2022-12-18T05:03:06;64.30;;;23.17;;
30127;SDS011;16942;53.196;6.592;2022-12-18T05:05:34;83.23;;;25.83;;
30127;SDS011;16942;53.196;6.592;2022-12-18T05:08:00;62.10;;;22.37;;
30127;SDS011;16942;53.196;6.592;2022-12-18T05:10:26;67.80;;;22.10;;
30127;SDS011;16942;53.196;6.592;2022-12-18T05:12:52;75.23;;;23.87;;
30127;SDS011;16942;53.196;6.592;2022-12-18T05:15:28;70.73;;;23.50;;
30127;SDS011;16942;53.196;6.592;2022-12-18T05:17:54;66.20;;;22.23;;
30127;SDS011;16942;53.196;6.592;2022-12-18T05:20:20;72.43;;;22.77;;
30127;SDS011;16942;53.196;6.592;2022-12-18T05:22:46;76.30;;;24.43;;
30127;SDS011;16942;53.196;6.592;2022-12-18T05:25:12;69.17;;;22.90;;
30127;SDS011;16942;53.196;6.592;2022-12-18T05:27:38;86.23;;;23.67;;
30127;SDS011;16942;53.196;6.592;2022-12-18T05:30:05;69.47;;;22.47;;
30127;SDS011;16942;53.196;6.592;2022-12-18T05:32:31;75.73;;;21.83;;
30127;SDS011;16942;53.196;6.592;2022-12-18T05:34:57;70.17;;;22.23;;
30127;SDS011;16942;53.196;6.592;2022-12-18T05:37:23;67.17;;;22.70;;
30127;SDS011;16942;53.196;6.592;2022-12-18T05:39:49;67.30;;;22.07;;
30127;SDS011;16942;53.196;6.592;2022-12-18T05:42:15;75.30;;;21.53;;
30127;SDS011;16942;53.196;6.592;2022-12-18T05:44:41;69.37;;;21.13;;
30127;SDS011;16942;53.196;6.592;2022-12-18T05:47:07;61.83;;;21.10;;
30127;SDS011;16942;53.196;6.592;2022-12-18T05:49:33;66.50;;;20.40;;
30127;SDS011;16942;53.196;6.592;2022-12-18T05:51:59;64.73;;;20.83;;
30127;SDS011;16942;53.196;6.592;2022-12-18T05:54:27;56.27;;;19.40;;
30127;SDS011;16942;53.196;6.592;2022-12-18T05:56:53;61.30;;;20.07;;
30127;SDS011;16942;53.196;6.592;2022-12-18T05:59:19;58.03;;;20.67;;
30127;SDS011;16942;53.196;6.592;2022-12-18T06:01:46;56.83;;;19.87;;
30127;SDS011;16942;53.196;6.592;2022-12-18T06:04:12;63.27;;;21.47;;
30127;SDS011;16942;53.196;6.592;2022-12-18T06:06:38;63.37;;;21.33;;
30127;SDS011;16942;53.196;6.592;2022-12-18T06:09:04;55.00;;;20.13;;
30127;SDS011;16942;53.196;6.592;2022-12-18T06:11:35;54.40;;;18.93;;
30127;SDS011;16942;53.196;6.592;2022-12-18T06:14:01;50.23;;;18.00;;
30127;SDS011;16942;53.196;6.592;2022-12-18T06:16:27;59.30;;;19.40;;
30127;SDS011;16942;53.196;6.592;2022-12-18T06:18:57;50.97;;;17.90;;
30127;SDS011;16942;53.196;6.592;2022-12-18T06:21:23;57.47;;;19.13;;
30127;SDS011;16942;53.196;6.592;2022-12-18T06:23:49;60.23;;;19.27;;
30127;SDS011;16942;53.196;6.592;2022-12-18T06:26:16;49.03;;;19.00;;
30127;SDS011;16942;53.196;6.592;2022-12-18T06:28:42;59.40;;;18.07;;
30127;SDS011;16942;53.196;6.592;2022-12-18T06:31:08;54.27;;;18.87;;
30127;SDS011;16942;53.196;6.592;2022-12-18T06:33:34;60.77;;;18.83;;
30127;SDS011;16942;53.196;6.592;2022-12-18T06:36:01;61.27;;;19.43;;
30127;SDS011;16942;53.196;6.592;2022-12-18T06:38:28;49.60;;;18.57;;
30127;SDS011;16942;53.196;6.592;2022-12-18T06:40:54;57.00;;;18.47;;
30127;SDS011;16942;53.196;6.592;2022-12-18T06:43:20;56.20;;;18.80;;
30127;SDS011;16942;53.196;6.592;2022-12-18T06:45:46;58.27;;;18.23;;
30127;SDS011;16942;53.196;6.592;2022-12-18T06:48:17;53.50;;;18.47;;
30127;SDS011;16942;53.196;6.592;2022-12-18T06:50:43;42.73;;;16.93;;
30127;SDS011;16942;53.196;6.592;2022-12-18T06:53:09;53.47;;;17.63;;
30127;SDS011;16942;53.196;6.592;2022-12-18T06:55:35;48.10;;;17.50;;
30127;SDS011;16942;53.196;6.592;2022-12-18T06:58:01;45.30;;;16.50;;
30127;SDS011;16942;53.196;6.592;2022-12-18T07:00:27;47.47;;;17.77;;
30127;SDS011;16942;53.196;6.592;2022-12-18T07:02:53;49.17;;;16.93;;
30127;SDS011;16942;53.196;6.592;2022-12-18T07:05:19;45.43;;;16.43;;
30127;SDS011;16942;53.196;6.592;2022-12-18T07:07:45;51.73;;;17.83;;
30127;SDS011;16942;53.196;6.592;2022-12-18T07:10:11;42.87;;;15.93;;
30127;SDS011;16942;53.196;6.592;2022-12-18T07:12:37;44.13;;;16.53;;
30127;SDS011;16942;53.196;6.592;2022-12-18T07:15:03;46.47;;;16.70;;
30127;SDS011;16942;53.196;6.592;2022-12-18T07:17:30;47.20;;;17.23;;
30127;SDS011;16942;53.196;6.592;2022-12-18T07:19:56;43.20;;;17.33;;
30127;SDS011;16942;53.196;6.592;2022-12-18T07:22:22;44.80;;;16.87;;
30127;SDS011;16942;53.196;6.592;2022-12-18T07:24:48;48.50;;;17.80;;
30127;SDS011;16942;53.196;6.592;2022-12-18T07:27:14;38.93;;;15.23;;
30127;SDS011;16942;53.196;6.592;2022-12-18T07:29:40;41.93;;;16.13;;
30127;SDS011;16942;53.196;6.592;2022-12-18T07:32:06;47.00;;;16.43;;
30127;SDS011;16942;53.196;6.592;2022-12-18T07:34:32;41.50;;;16.53;;
30127;SDS011;16942;53.196;6.592;2022-12-18T07:36:58;40.37;;;15.73;;
30127;SDS011;16942;53.196;6.592;2022-12-18T07:39:24;48.20;;;15.47;;
30127;SDS011;16942;53.196;6.592;2022-12-18T07:41:50;44.30;;;15.03;;
30127;SDS011;16942;53.196;6.592;2022-12-18T07:44:35;38.67;;;16.43;;
30127;SDS011;16942;53.196;6.592;2022-12-18T07:47:01;39.50;;;15.23;;
30127;SDS011;16942;53.196;6.592;2022-12-18T07:49:27;38.30;;;14.07;;
30127;SDS011;16942;53.196;6.592;2022-12-18T07:51:56;38.70;;;15.13;;
30127;SDS011;16942;53.196;6.592;2022-12-18T07:54:23;34.47;;;13.67;;
30127;SDS011;16942;53.196;6.592;2022-12-18T07:56:49;41.53;;;16.43;;
30127;SDS011;16942;53.196;6.592;2022-12-18T07:59:16;36.07;;;15.13;;
30127;SDS011;16942;53.196;6.592;2022-12-18T08:01:42;33.77;;;14.70;;
30127;SDS011;16942;53.196;6.592;2022-12-18T08:04:08;36.57;;;15.20;;
30127;SDS011;16942;53.196;6.592;2022-12-18T08:06:34;35.37;;;14.77;;
30127;SDS011;16942;53.196;6.592;2022-12-18T08:09:00;40.30;;;14.20;;
30127;SDS011;16942;53.196;6.592;2022-12-18T08:11:26;35.37;;;15.83;;
30127;SDS011;16942;53.196;6.592;2022-12-18T08:13:53;33.40;;;14.53;;
30127;SDS011;16942;53.196;6.592;2022-12-18T08:16:19;38.43;;;16.70;;
30127;SDS011;16942;53.196;6.592;2022-12-18T08:18:45;41.60;;;15.53;;
30127;SDS011;16942;53.196;6.592;2022-12-18T08:21:15;37.43;;;15.30;;
30127;SDS011;16942;53.196;6.592;2022-12-18T08:23:42;40.23;;;16.20;;
30127;SDS011;16942;53.196;6.592;2022-12-18T08:26:08;42.83;;;16.20;;
30127;SDS011;16942;53.196;6.592;2022-12-18T08:28:34;38.70;;;16.03;;
30127;SDS011;16942;53.196;6.592;2022-12-18T08:31:00;45.73;;;15.97;;
30127;SDS011;16942;53.196;6.592;2022-12-18T08:33:26;40.83;;;15.33;;
30127;SDS011;16942;53.196;6.592;2022-12-18T08:35:52;40.20;;;15.43;;
30127;SDS011;16942;53.196;6.592;2022-12-18T08:38:19;37.43;;;13.53;;
30127;SDS011;16942;53.196;6.592;2022-12-18T08:40:45;40.50;;;14.03;;
30127;SDS011;16942;53.196;6.592;2022-12-18T08:43:11;43.87;;;15.40;;
30127;SDS011;16942;53.196;6.592;2022-12-18T08:45:56;37.67;;;14.67;;
30127;SDS011;16942;53.196;6.592;2022-12-18T08:48:22;37.77;;;14.97;;
30127;SDS011;16942;53.196;6.592;2022-12-18T08:50:58;36.33;;;15.37;;
30127;SDS011;16942;53.196;6.592;2022-12-18T08:53:24;35.93;;;14.60;;
30127;SDS011;16942;53.196;6.592;2022-12-18T08:55:50;36.07;;;15.47;;
30127;SDS011;16942;53.196;6.592;2022-12-18T08:58:16;40.13;;;15.67;;
30127;SDS011;16942;53.196;6.592;2022-12-18T09:00:42;35.37;;;14.87;;
30127;SDS011;16942;53.196;6.592;2022-12-18T09:03:12;38.33;;;15.27;;
30127;SDS011;16942;53.196;6.592;2022-12-18T09:05:38;34.47;;;14.50;;
30127;SDS011;16942;53.196;6.592;2022-12-18T09:08:04;36.17;;;15.30;;
30127;SDS011;16942;53.196;6.592;2022-12-18T09:10:30;38.73;;;15.43;;
30127;SDS011;16942;53.196;6.592;2022-12-18T09:12:57;31.77;;;14.00;;
30127;SDS011;16942;53.196;6.592;2022-12-18T09:15:23;34.90;;;14.93;;
30127;SDS011;16942;53.196;6.592;2022-12-18T09:17:49;40.77;;;14.60;;
30127;SDS011;16942;53.196;6.592;2022-12-18T09:20:15;37.07;;;14.70;;
30127;SDS011;16942;53.196;6.592;2022-12-18T09:22:42;31.33;;;15.03;;
30127;SDS011;16942;53.196;6.592;2022-12-18T09:25:08;31.73;;;14.20;;
30127;SDS011;16942;53.196;6.592;2022-12-18T09:27:34;35.03;;;14.70;;
30127;SDS011;16942;53.196;6.592;2022-12-18T09:30:00;34.97;;;14.27;;
30127;SDS011;16942;53.196;6.592;2022-12-18T09:32:26;29.37;;;13.63;;
30127;SDS011;16942;53.196;6.592;2022-12-18T09:34:52;35.97;;;14.80;;
30127;SDS011;16942;53.196;6.592;2022-12-18T09:37:18;34.43;;;14.27;;
30127;SDS011;16942;53.196;6.592;2022-12-18T09:39:44;33.60;;;13.80;;
30127;SDS011;16942;53.196;6.592;2022-12-18T09:42:18;54.03;;;15.60;;
30127;SDS011;16942;53.196;6.592;2022-12-18T09:44:48;30.07;;;12.93;;
30127;SDS011;16942;53.196;6.592;2022-12-18T09:49:42;33.07;;;12.93;;
30127;SDS011;16942;53.196;6.592;2022-12-18T09:54:40;27.63;;;12.43;;
30127;SDS011;16942;53.196;6.592;2022-12-18T09:57:28;24.47;;;11.87;;
30127;SDS011;16942;53.196;6.592;2022-12-18T09:59:56;33.13;;;13.03;;
30127;SDS011;16942;53.196;6.592;2022-12-18T10:02:25;32.10;;;12.13;;
30127;SDS011;16942;53.196;6.592;2022-12-18T10:05:01;21.17;;;10.97;;
30127;SDS011;16942;53.196;6.592;2022-12-18T10:10:42;26.27;;;11.33;;
30127;SDS011;16942;53.196;6.592;2022-12-18T10:12:51;25.67;;;11.83;;
30127;SDS011;16942;53.196;6.592;2022-12-18T10:20:51;23.77;;;10.30;;
30127;SDS011;16942;53.196;6.592;2022-12-18T10:23:38;25.00;;;10.73;;
30127;SDS011;16942;53.196;6.592;2022-12-18T10:26:06;22.17;;;9.80;;
30127;SDS011;16942;53.196;6.592;2022-12-18T10:28:33;31.03;;;11.87;;
30127;SDS011;16942;53.196;6.592;2022-12-18T10:30:59;22.47;;;10.07;;
30127;SDS011;16942;53.196;6.592;2022-12-18T10:33:28;31.27;;;10.73;;
30127;SDS011;16942;53.196;6.592;2022-12-18T10:35:56;20.80;;;9.80;;
30127;SDS011;16942;53.196;6.592;2022-12-18T10:38:27;21.00;;;10.00;;
30127;SDS011;16942;53.196;6.592;2022-12-18T10:41:03;18.17;;;9.40;;
30127;SDS011;16942;53.196;6.592;2022-12-18T10:43:34;23.50;;;9.57;;
30127;SDS011;16942;53.196;6.592;2022-12-18T10:48:36;21.63;;;8.90;;
30127;SDS011;16942;53.196;6.592;2022-12-18T10:51:06;15.33;;;7.83;;
30127;SDS011;16942;53.196;6.592;2022-12-18T10:53:33;21.50;;;9.17;;
30127;SDS011;16942;53.196;6.592;2022-12-18T10:56:00;17.03;;;8.90;;
30127;SDS011;16942;53.196;6.592;2022-12-18T10:58:28;21.03;;;8.33;;
30127;SDS011;16942;53.196;6.592;2022-12-18T11:01:07;15.83;;;7.43;;
30127;SDS011;16942;53.196;6.592;2022-12-18T11:03:41;18.13;;;8.83;;
30127;SDS011;16942;53.196;6.592;2022-12-18T11:06:09;20.60;;;8.37;;
30127;SDS011;16942;53.196;6.592;2022-12-18T11:08:35;18.20;;;8.40;;
30127;SDS011;16942;53.196;6.592;2022-12-18T11:11:01;16.00;;;7.63;;
30127;SDS011;16942;53.196;6.592;2022-12-18T11:13:29;15.13;;;8.07;;
30127;SDS011;16942;53.196;6.592;2022-12-18T11:15:56;14.73;;;6.90;;
30127;SDS011;16942;53.196;6.592;2022-12-18T11:18:29;13.83;;;7.03;;
30127;SDS011;16942;53.196;6.592;2022-12-18T11:20:59;16.27;;;7.17;;
30127;SDS011;16942;53.196;6.592;2022-12-18T11:23:27;15.17;;;6.40;;
30127;SDS011;16942;53.196;6.592;2022-12-18T11:25:54;15.30;;;6.83;;
30127;SDS011;16942;53.196;6.592;2022-12-18T11:33:35;16.57;;;6.70;;
30127;SDS011;16942;53.196;6.592;2022-12-18T11:36:03;11.27;;;6.67;;
30127;SDS011;16942;53.196;6.592;2022-12-18T11:38:39;12.10;;;5.60;;
30127;SDS011;16942;53.196;6.592;2022-12-18T11:41:16;13.77;;;6.57;;
30127;SDS011;16942;53.196;6.592;2022-12-18T11:43:50;10.23;;;5.90;;
30127;SDS011;16942;53.196;6.592;2022-12-18T11:46:19;12.27;;;5.90;;
30127;SDS011;16942;53.196;6.592;2022-12-18T11:48:54;11.50;;;5.87;;
30127;SDS011;16942;53.196;6.592;2022-12-18T11:51:47;13.53;;;6.30;;
30127;SDS011;16942;53.196;6.592;2022-12-18T11:54:14;13.47;;;7.00;;
30127;SDS011;16942;53.196;6.592;2022-12-18T11:56:46;12.50;;;6.33;;
30127;SDS011;16942;53.196;6.592;2022-12-18T12:04:21;12.17;;;6.40;;
30127;SDS011;16942;53.196;6.592;2022-12-18T12:09:24;11.20;;;5.90;;
30127;SDS011;16942;53.196;6.592;2022-12-18T12:12:01;10.30;;;5.70;;
30127;SDS011;16942;53.196;6.592;2022-12-18T12:16:57;9.17;;;5.70;;
30127;SDS011;16942;53.196;6.592;2022-12-18T12:21:58;13.10;;;6.20;;
30127;SDS011;16942;53.196;6.592;2022-12-18T12:29:45;12.17;;;6.17;;
30127;SDS011;16942;53.196;6.592;2022-12-18T12:32:25;9.67;;;5.63;;
30127;SDS011;16942;53.196;6.592;2022-12-18T12:35:01;12.20;;;6.30;;
30127;SDS011;16942;53.196;6.592;2022-12-18T12:40:14;8.57;;;5.40;;
30127;SDS011;16942;53.196;6.592;2022-12-18T12:42:44;10.53;;;5.50;;
30127;SDS011;16942;53.196;6.592;2022-12-18T12:45:33;7.63;;;4.80;;
30127;SDS011;16942;53.196;6.592;2022-12-18T12:48:01;10.33;;;5.50;;
30127;SDS011;16942;53.196;6.592;2022-12-18T12:50:28;9.00;;;4.83;;
30127;SDS011;16942;53.196;6.592;2022-12-18T12:52:56;9.63;;;4.90;;
30127;SDS011;16942;53.196;6.592;2022-12-18T12:55:26;11.47;;;5.37;;
30127;SDS011;16942;53.196;6.592;2022-12-18T12:58:03;14.27;;;5.70;;
30127;SDS011;16942;53.196;6.592;2022-12-18T13:00:36;9.97;;;5.27;;
30127;SDS011;16942;53.196;6.592;2022-12-18T13:03:24;8.43;;;4.93;;
30127;SDS011;16942;53.196;6.592;2022-12-18T13:05:54;10.07;;;5.17;;
30127;SDS011;16942;53.196;6.592;2022-12-18T13:08:31;11.10;;;4.97;;
30127;SDS011;16942;53.196;6.592;2022-12-18T13:10:58;12.47;;;5.07;;
30127;SDS011;16942;53.196;6.592;2022-12-18T13:13:49;15.87;;;6.10;;
30127;SDS011;16942;53.196;6.592;2022-12-18T13:16:18;8.97;;;4.40;;
30127;SDS011;16942;53.196;6.592;2022-12-18T13:18:51;11.83;;;5.50;;
30127;SDS011;16942;53.196;6.592;2022-12-18T13:21:21;8.93;;;5.03;;
30127;SDS011;16942;53.196;6.592;2022-12-18T13:23:49;11.67;;;5.60;;
30127;SDS011;16942;53.196;6.592;2022-12-18T13:31:13;9.77;;;5.30;;
30127;SDS011;16942;53.196;6.592;2022-12-18T13:33:46;8.37;;;4.93;;
30127;SDS011;16942;53.196;6.592;2022-12-18T13:36:16;11.07;;;5.23;;
30127;SDS011;16942;53.196;6.592;2022-12-18T13:41:34;10.53;;;4.80;;
30127;SDS011;16942;53.196;6.592;2022-12-18T13:44:13;10.60;;;5.17;;
30127;SDS011;16942;53.196;6.592;2022-12-18T13:46:47;10.33;;;5.37;;
30127;SDS011;16942;53.196;6.592;2022-12-18T13:51:41;12.70;;;5.57;;
30127;SDS011;16942;53.196;6.592;2022-12-18T13:56:52;12.67;;;5.50;;
30127;SDS011;16942;53.196;6.592;2022-12-18T13:59:23;9.60;;;4.57;;
30127;SDS011;16942;53.196;6.592;2022-12-18T14:01:53;6.77;;;4.43;;
30127;SDS011;16942;53.196;6.592;2022-12-18T14:04:21;9.87;;;4.93;;
30127;SDS011;16942;53.196;6.592;2022-12-18T14:06:49;10.20;;;5.17;;
30127;SDS011;16942;53.196;6.592;2022-12-18T14:09:16;9.63;;;5.33;;
30127;SDS011;16942;53.196;6.592;2022-12-18T14:11:48;10.23;;;5.53;;
30127;SDS011;16942;53.196;6.592;2022-12-18T14:14:15;9.07;;;5.27;;
30127;SDS011;16942;53.196;6.592;2022-12-18T14:16:42;16.50;;;5.50;;
30127;SDS011;16942;53.196;6.592;2022-12-18T14:19:10;9.47;;;4.73;;
30127;SDS011;16942;53.196;6.592;2022-12-18T14:21:37;10.57;;;5.47;;
30127;SDS011;16942;53.196;6.592;2022-12-18T14:26:30;11.60;;;5.53;;
30127;SDS011;16942;53.196;6.592;2022-12-18T14:28:58;11.03;;;5.93;;
30127;SDS011;16942;53.196;6.592;2022-12-18T14:31:29;8.23;;;4.90;;
30127;SDS011;16942;53.196;6.592;2022-12-18T14:33:55;10.00;;;5.90;;
30127;SDS011;16942;53.196;6.592;2022-12-18T14:36:25;10.53;;;5.70;;
30127;SDS011;16942;53.196;6.592;2022-12-18T14:38:58;12.33;;;5.87;;
30127;SDS011;16942;53.196;6.592;2022-12-18T14:41:24;9.67;;;5.50;;
30127;SDS011;16942;53.196;6.592;2022-12-18T14:43:52;15.73;;;6.73;;
30127;SDS011;16942;53.196;6.592;2022-12-18T14:46:29;11.67;;;5.60;;
30127;SDS011;16942;53.196;6.592;2022-12-18T14:48:56;10.40;;;5.57;;
30127;SDS011;16942;53.196;6.592;2022-12-18T14:51:23;10.17;;;5.90;;
30127;SDS011;16942;53.196;6.592;2022-12-18T14:53:53;10.67;;;5.90;;
30127;SDS011;16942;53.196;6.592;2022-12-18T14:57:22;9.97;;;5.60;;
30127;SDS011;16942;53.196;6.592;2022-12-18T14:59:20;11.27;;;5.87;;
30127;SDS011;16942;53.196;6.592;2022-12-18T15:07:02;12.37;;;6.20;;
30127;SDS011;16942;53.196;6.592;2022-12-18T15:09:28;12.75;;;7.95;;
30127;SDS011;16942;53.196;6.592;2022-12-18T15:11:55;9.70;;;6.33;;
30127;SDS011;16942;53.196;6.592;2022-12-18T15:14:43;12.90;;;6.60;;
30127;SDS011;16942;53.196;6.592;2022-12-18T15:17:26;12.63;;;6.87;;
30127;SDS011;16942;53.196;6.592;2022-12-18T15:19:53;10.53;;;6.70;;
30127;SDS011;16942;53.196;6.592;2022-12-18T15:22:25;9.53;;;5.47;;
30127;SDS011;16942;53.196;6.592;2022-12-18T15:24:52;16.47;;;6.80;;
30127;SDS011;16942;53.196;6.592;2022-12-18T15:27:40;10.73;;;7.00;;
30127;SDS011;16942;53.196;6.592;2022-12-18T15:32:30;15.87;;;6.90;;
30127;SDS011;16942;53.196;6.592;2022-12-18T15:37:35;11.50;;;6.17;;
30127;SDS011;16942;53.196;6.592;2022-12-18T15:40:02;12.55;;;7.20;;
30127;SDS011;16942;53.196;6.592;2022-12-18T15:42:28;12.73;;;7.30;;
30127;SDS011;16942;53.196;6.592;2022-12-18T15:45:13;12.00;;;6.77;;
30127;SDS011;16942;53.196;6.592;2022-12-18T15:47:40;11.03;;;7.03;;
30127;SDS011;16942;53.196;6.592;2022-12-18T15:50:09;12.93;;;7.10;;
30127;SDS011;16942;53.196;6.592;2022-12-18T15:52:45;16.40;;;7.73;;
30127;SDS011;16942;53.196;6.592;2022-12-18T15:55:15;11.07;;;6.50;;
30127;SDS011;16942;53.196;6.592;2022-12-18T15:58:00;12.13;;;6.87;;
30127;SDS011;16942;53.196;6.592;2022-12-18T16:00:26;14.17;;;7.30;;
30127;SDS011;16942;53.196;6.592;2022-12-18T16:02:52;15.43;;;7.20;;
30127;SDS011;16942;53.196;6.592;2022-12-18T16:05:19;15.33;;;6.87;;
30127;SDS011;16942;53.196;6.592;2022-12-18T16:07:46;17.50;;;8.03;;
30127;SDS011;16942;53.196;6.592;2022-12-18T16:10:13;13.30;;;6.97;;
30127;SDS011;16942;53.196;6.592;2022-12-18T16:12:39;14.73;;;7.70;;